createdAt,value
2022-07-30T00:02:19.138Z,38.50
2022-07-30T00:04:49.135Z,39.54
2022-07-30T00:07:16.095Z,39.72
2022-07-30T00:09:42.808Z,39.69
2022-07-30T00:12:09.973Z,39.33
2022-07-30T00:14:36.930Z,39.32
2022-07-30T00:17:05.100Z,39.55
2022-07-30T00:19:32.464Z,39.05
2022-07-30T00:21:59.477Z,39.36
2022-07-30T00:24:26.211Z,39.65
2022-07-30T00:26:52.942Z,40.27
2022-07-30T00:29:20.046Z,39.88
2022-07-30T00:31:46.847Z,39.98
2022-07-30T00:34:13.619Z,39.76
2022-07-30T00:36:40.547Z,39.26
2022-07-30T00:39:07.532Z,40.56
2022-07-30T00:41:34.514Z,40.24
2022-07-30T00:44:01.284Z,40.70
2022-07-30T00:46:28.235Z,40.64
2022-07-30T00:48:55.126Z,40.73
2022-07-30T00:51:22.090Z,40.66
2022-07-30T00:53:48.906Z,40.83
2022-07-30T00:56:15.644Z,41.09
2022-07-30T00:58:43.285Z,41.37
2022-07-30T01:01:10.061Z,41.39
2022-07-30T01:03:37.938Z,41.40
2022-07-30T01:06:04.690Z,41.59
2022-07-30T01:08:31.440Z,41.04
2022-07-30T01:10:58.183Z,41.61
2022-07-30T01:13:24.953Z,41.23
2022-07-30T01:15:51.712Z,41.59
2022-07-30T01:18:18.891Z,41.08
2022-07-30T01:21:07.491Z,41.51
2022-07-30T01:23:46.101Z,41.55
2022-07-30T01:26:17.680Z,42.40
2022-07-30T01:28:50.779Z,41.78
2022-07-30T01:31:18.001Z,42.00
2022-07-30T01:33:46.083Z,41.76
2022-07-30T01:36:15.394Z,42.05
2022-07-30T01:38:44.857Z,42.00
2022-07-30T01:41:12.910Z,41.80
2022-07-30T01:43:40.231Z,42.08
2022-07-30T01:46:08.160Z,41.90
2022-07-30T01:48:37.635Z,41.90
2022-07-30T01:51:06.355Z,42.27
2022-07-30T01:53:38.329Z,42.39
2022-07-30T01:56:05.621Z,42.29
2022-07-30T01:58:39.090Z,42.72
2022-07-30T02:01:14.491Z,42.95
2022-07-30T02:03:42.612Z,42.86
2022-07-30T02:06:23.693Z,43.37
2022-07-30T02:08:56.000Z,42.73
2022-07-30T02:11:43.439Z,42.83
2022-07-30T02:14:18.339Z,42.61
2022-07-30T02:16:46.320Z,43.37
2022-07-30T02:19:16.561Z,43.04
2022-07-30T02:21:50.319Z,43.67
2022-07-30T02:24:22.668Z,43.27
2022-07-30T02:26:52.274Z,43.21
2022-07-30T02:29:19.945Z,43.26
2022-07-30T02:31:48.813Z,42.93
2022-07-30T02:34:17.035Z,43.48
2022-07-30T02:36:45.131Z,43.73
2022-07-30T02:39:14.505Z,43.04
2022-07-30T02:41:46.661Z,43.44
2022-07-30T02:44:19.585Z,43.34
2022-07-30T02:46:48.371Z,43.27
2022-07-30T02:49:31.815Z,42.86
2022-07-30T02:52:00.676Z,43.21
2022-07-30T02:54:30.777Z,43.24
2022-07-30T02:57:00.219Z,43.96
2022-07-30T02:59:29.000Z,43.46
2022-07-30T03:01:56.118Z,44.02
2022-07-30T03:04:23.228Z,44.07
2022-07-30T03:06:50.297Z,43.90
2022-07-30T03:09:18.156Z,44.28
2022-07-30T03:11:46.035Z,44.17
2022-07-30T03:14:12.799Z,44.85
2022-07-30T03:16:42.272Z,45.11
2022-07-30T03:19:13.897Z,45.12
2022-07-30T03:21:41.722Z,44.92
2022-07-30T03:24:09.348Z,45.16
2022-07-30T03:26:36.734Z,46.04
2022-07-30T03:29:03.817Z,45.24
2022-07-30T03:31:32.644Z,45.39
2022-07-30T03:34:03.340Z,45.26
2022-07-30T03:36:34.251Z,46.01
2022-07-30T03:39:02.179Z,46.02
2022-07-30T03:41:29.523Z,46.10
2022-07-30T03:43:56.825Z,46.75
2022-07-30T03:46:24.283Z,46.86
2022-07-30T03:48:52.624Z,46.43
2022-07-30T03:51:19.918Z,47.17
2022-07-30T03:53:47.075Z,47.22
2022-07-30T03:56:33.939Z,47.37
2022-07-30T03:59:01.822Z,47.49
2022-07-30T04:01:28.979Z,47.58
2022-07-30T04:04:10.734Z,48.08
2022-07-30T04:06:40.305Z,48.52
2022-07-30T04:09:12.281Z,48.56
2022-07-30T04:11:41.597Z,48.71
2022-07-30T04:14:14.402Z,48.79
2022-07-30T04:17:07.173Z,49.40
2022-07-30T04:19:36.425Z,49.12
2022-07-30T04:22:03.823Z,49.93
2022-07-30T04:24:33.707Z,50.21
2022-07-30T04:27:01.971Z,49.47
2022-07-30T04:29:29.259Z,49.97
2022-07-30T04:31:56.336Z,50.09
2022-07-30T04:34:52.841Z,50.08
2022-07-30T04:37:39.979Z,50.01
2022-07-30T04:40:07.436Z,50.35
2022-07-30T04:42:34.197Z,50.43
2022-07-30T04:45:06.455Z,50.13
2022-07-30T04:47:47.927Z,49.98
2022-07-30T04:50:30.527Z,49.59
2022-07-30T04:52:58.378Z,49.69
2022-07-30T04:55:33.188Z,49.46
2022-07-30T04:58:00.259Z,50.67
2022-07-30T05:00:32.626Z,49.84
2022-07-30T05:03:01.167Z,49.23
2022-07-30T05:05:31.456Z,49.53
2022-07-30T05:07:59.442Z,49.03
2022-07-30T05:10:26.710Z,49.78
2022-07-30T05:12:53.605Z,49.25
2022-07-30T05:15:22.136Z,49.82
2022-07-30T05:18:03.599Z,49.99
2022-07-30T05:20:34.101Z,49.47
2022-07-30T05:23:10.170Z,49.46
2022-07-30T05:25:39.320Z,49.75
2022-07-30T05:28:22.715Z,48.91
2022-07-30T05:30:49.664Z,48.50
2022-07-30T05:33:18.577Z,49.04
2022-07-30T05:35:45.873Z,48.24
2022-07-30T05:38:13.535Z,48.46
2022-07-30T05:41:31.709Z,48.29
2022-07-30T05:44:23.600Z,47.58
2022-07-30T05:46:52.057Z,47.51
2022-07-30T05:49:19.790Z,48.05
2022-07-30T05:51:46.639Z,48.86
2022-07-30T05:54:13.884Z,47.86
2022-07-30T05:56:59.653Z,48.48
2022-07-30T05:59:34.778Z,47.54
2022-07-30T06:02:24.418Z,47.84
2022-07-30T06:05:09.782Z,48.35
2022-07-30T06:07:36.723Z,47.08
2022-07-30T06:10:06.453Z,47.60
2022-07-30T06:12:33.189Z,47.33
2022-07-30T06:15:01.523Z,47.17
2022-07-30T06:17:41.501Z,45.93
2022-07-30T06:20:22.384Z,45.81
2022-07-30T06:22:57.953Z,46.38
2022-07-30T06:25:39.305Z,45.34
2022-07-30T06:28:34.674Z,44.99
2022-07-30T06:30:54.726Z,45.56
2022-07-30T06:33:23.792Z,44.50
2022-07-30T06:35:51.307Z,44.29
2022-07-30T06:38:21.590Z,44.43
2022-07-30T06:41:02.533Z,43.92
2022-07-30T06:43:45.021Z,43.76
2022-07-30T06:46:35.134Z,43.49
2022-07-30T06:49:02.104Z,42.37
2022-07-30T06:51:32.150Z,42.45
2022-07-30T06:53:59.018Z,42.94
2022-07-30T06:56:57.800Z,44.29
2022-07-30T06:59:24.821Z,44.72
2022-07-30T07:02:07.192Z,43.76
2022-07-30T07:04:46.271Z,43.39
2022-07-30T07:07:13.764Z,44.16
2022-07-30T07:09:44.742Z,44.04
2022-07-30T07:12:44.004Z,43.41
2022-07-30T07:15:11.724Z,43.07
2022-07-30T07:17:38.835Z,43.14
2022-07-30T07:20:06.215Z,43.10
2022-07-30T07:22:40.285Z,42.94
2022-07-30T07:25:08.996Z,42.50
2022-07-30T07:27:36.838Z,42.18
2022-07-30T07:30:06.212Z,42.29
2022-07-30T07:32:36.696Z,42.81
2022-07-30T07:35:05.471Z,42.54
2022-07-30T07:37:34.312Z,42.38
2022-07-30T07:40:02.346Z,42.02
2022-07-30T07:42:32.303Z,42.28
2022-07-30T07:44:59.048Z,42.28
2022-07-30T07:47:55.476Z,42.31
2022-07-30T07:50:45.560Z,41.34
2022-07-30T07:53:20.856Z,41.32
2022-07-30T07:55:47.853Z,41.72
2022-07-30T07:58:17.574Z,42.53
2022-07-30T08:00:53.123Z,41.88
2022-07-30T08:03:22.361Z,40.71
2022-07-30T08:05:58.038Z,41.63
2022-07-30T08:08:47.849Z,42.76
2022-07-30T08:11:53.430Z,41.82
2022-07-30T08:14:49.560Z,40.56
2022-07-30T08:17:46.846Z,41.85
2022-07-30T08:20:19.730Z,40.56
2022-07-30T08:22:47.384Z,39.11
2022-07-30T08:25:21.833Z,40.85
2022-07-30T08:27:51.567Z,40.02
2022-07-30T08:30:20.561Z,40.47
2022-07-30T08:32:47.444Z,40.49
2022-07-30T08:35:14.531Z,40.32
2022-07-30T08:37:42.360Z,39.88
2022-07-30T08:40:09.918Z,38.82
2022-07-30T08:42:45.686Z,41.82
2022-07-30T08:45:13.893Z,38.58
2022-07-30T08:47:41.519Z,38.60
2022-07-30T08:50:11.756Z,38.21
2022-07-30T08:53:09.787Z,37.56
2022-07-30T08:55:37.395Z,37.13
2022-07-30T08:58:05.588Z,36.39
2022-07-30T09:00:32.602Z,35.94
2022-07-30T09:02:59.684Z,36.17
2022-07-30T09:05:26.488Z,36.86
2022-07-30T09:07:53.496Z,36.60
2022-07-30T09:10:24.175Z,36.17
2022-07-30T09:12:51.423Z,36.77
2022-07-30T09:15:20.648Z,36.60
2022-07-30T09:17:55.027Z,36.26
2022-07-30T09:20:25.568Z,36.17
2022-07-30T09:22:58.625Z,37.43
2022-07-30T09:26:01.087Z,38.19
2022-07-30T09:28:45.962Z,38.29
2022-07-30T09:31:16.945Z,37.37
2022-07-30T09:34:02.380Z,37.31
2022-07-30T09:37:03.629Z,36.56
2022-07-30T09:40:12.193Z,37.33
2022-07-30T09:43:09.501Z,37.90
2022-07-30T09:45:56.589Z,37.27
2022-07-30T09:48:28.518Z,37.71
2022-07-30T09:50:58.408Z,36.24
2022-07-30T09:53:26.915Z,34.88
2022-07-30T09:55:53.838Z,33.81
2022-07-30T09:58:26.628Z,34.62
2022-07-30T10:01:00.177Z,33.76
2022-07-30T10:03:46.500Z,34.41
2022-07-30T10:06:38.198Z,33.59
2022-07-30T10:09:45.317Z,32.56
2022-07-30T10:12:15.377Z,31.73
2022-07-30T10:14:47.497Z,31.09
2022-07-30T10:17:18.149Z,31.57
2022-07-30T10:20:08.142Z,31.37
2022-07-30T10:22:54.528Z,30.71
2022-07-30T10:25:49.642Z,29.76
2022-07-30T10:28:48.237Z,29.44
2022-07-30T10:31:48.042Z,29.07
2022-07-30T10:34:03.019Z,28.95
2022-07-30T10:36:30.920Z,28.48
2022-07-30T10:38:59.598Z,28.78
2022-07-30T10:41:42.802Z,29.00
2022-07-30T10:44:20.293Z,28.18
2022-07-30T10:47:07.854Z,28.71
2022-07-30T10:49:40.599Z,28.65
2022-07-30T10:52:09.109Z,28.51
2022-07-30T10:54:40.313Z,29.00
2022-07-30T10:57:15.221Z,28.16
2022-07-30T10:59:49.864Z,26.86
2022-07-30T11:02:18.012Z,26.94
2022-07-30T11:04:46.753Z,26.43
2022-07-30T11:07:24.042Z,25.82
2022-07-30T11:10:09.401Z,26.83
2022-07-30T11:12:44.015Z,26.13
2022-07-30T11:15:18.424Z,25.46
2022-07-30T11:18:12.775Z,25.54
2022-07-30T11:20:41.346Z,25.24
2022-07-30T11:23:24.642Z,23.60
2022-07-30T11:25:54.988Z,23.62
2022-07-30T11:28:38.519Z,23.48
2022-07-30T11:31:49.871Z,23.71
2022-07-30T11:34:19.738Z,21.17
2022-07-30T11:37:03.167Z,21.69
2022-07-30T11:39:58.573Z,21.90
2022-07-30T11:42:25.558Z,20.81
2022-07-30T11:44:52.768Z,21.04
2022-07-30T11:47:20.167Z,20.75
2022-07-30T11:49:47.669Z,19.79
2022-07-30T11:52:23.041Z,20.40
2022-07-30T11:54:54.632Z,19.26
2022-07-30T11:57:21.646Z,19.38
2022-07-30T11:59:55.775Z,19.04
2022-07-30T12:02:29.556Z,17.92
2022-07-30T12:04:56.450Z,17.70
2022-07-30T12:07:24.195Z,18.02
2022-07-30T12:09:51.085Z,18.64
2022-07-30T12:12:27.557Z,18.55
2022-07-30T12:14:55.539Z,18.58
2022-07-30T12:17:44.132Z,18.48
2022-07-30T12:20:19.190Z,20.38
2022-07-30T12:22:46.616Z,21.28
2022-07-30T12:25:14.958Z,19.50
2022-07-30T12:27:51.745Z,21.01
2022-07-30T12:30:19.714Z,19.87
2022-07-30T12:32:47.891Z,21.59
2022-07-30T12:35:15.617Z,21.01
2022-07-30T12:38:02.671Z,22.64
2022-07-30T12:40:29.871Z,21.95
2022-07-30T12:42:57.000Z,22.79
2022-07-30T12:45:51.999Z,23.56
2022-07-30T12:48:19.932Z,24.16
2022-07-30T12:50:49.332Z,24.46
2022-07-30T12:53:16.556Z,24.91
2022-07-30T12:55:45.146Z,26.19
2022-07-30T12:58:12.329Z,26.07
2022-07-30T13:00:53.081Z,25.96
2022-07-30T13:03:26.335Z,25.95
2022-07-30T13:05:56.185Z,27.72
2022-07-30T13:08:53.502Z,26.04
2022-07-30T13:11:26.400Z,26.69
2022-07-30T13:13:53.738Z,27.89
2022-07-30T13:16:21.103Z,27.82
2022-07-30T13:18:49.305Z,27.28
2022-07-30T13:21:16.468Z,28.66
2022-07-30T13:23:43.442Z,25.98
2022-07-30T13:26:10.952Z,25.58
2022-07-30T13:28:38.017Z,26.20
2022-07-30T13:31:05.008Z,27.03
2022-07-30T13:33:32.456Z,27.79
2022-07-30T13:35:59.654Z,27.32
2022-07-30T13:38:27.205Z,27.65
2022-07-30T13:40:56.137Z,26.35
2022-07-30T13:43:26.152Z,26.92
2022-07-30T13:45:53.472Z,26.46
2022-07-30T13:48:24.509Z,27.15
2022-07-30T13:50:51.314Z,26.31
2022-07-30T13:53:18.124Z,26.73
2022-07-30T13:55:47.021Z,28.55
2022-07-30T13:58:14.494Z,28.26
2022-07-30T14:00:41.811Z,28.00
2022-07-30T14:03:11.246Z,27.36
2022-07-30T14:05:42.174Z,27.61
2022-07-30T14:08:10.931Z,28.16
2022-07-30T14:10:39.991Z,28.23
2022-07-30T14:13:08.486Z,28.41
2022-07-30T14:15:35.458Z,29.48
2022-07-30T14:18:02.604Z,29.05
2022-07-30T14:20:29.905Z,29.87
2022-07-30T14:22:57.493Z,29.07
2022-07-30T14:25:24.715Z,28.64
2022-07-30T14:27:51.813Z,28.65
2022-07-30T14:30:18.733Z,29.67
2022-07-30T14:32:45.604Z,28.41
2022-07-30T14:35:13.560Z,29.52
2022-07-30T14:37:41.475Z,28.33
2022-07-30T14:40:11.957Z,28.30
2022-07-30T14:42:42.863Z,28.66
2022-07-30T14:45:10.711Z,28.66
2022-07-30T14:47:38.028Z,28.78
2022-07-30T14:50:05.456Z,28.83
2022-07-30T14:52:35.253Z,29.92
2022-07-30T14:55:03.832Z,28.61
2022-07-30T14:57:33.880Z,28.45
2022-07-30T15:00:01.150Z,28.37
2022-07-30T15:02:28.358Z,28.56
2022-07-30T15:04:55.987Z,29.43
2022-07-30T15:07:23.500Z,29.67
2022-07-30T15:09:50.829Z,29.28
2022-07-30T15:12:26.719Z,29.98
2022-07-30T15:14:54.243Z,29.67
2022-07-30T15:17:21.206Z,30.01
2022-07-30T15:19:50.856Z,30.42
2022-07-30T15:22:20.472Z,30.81
2022-07-30T15:24:48.935Z,29.62
2022-07-30T15:27:16.151Z,29.90
2022-07-30T15:29:43.108Z,29.89
2022-07-30T15:32:10.083Z,29.83
2022-07-30T15:34:37.219Z,29.96
2022-07-30T15:37:05.319Z,30.14
2022-07-30T15:39:33.679Z,29.95
2022-07-30T15:42:01.751Z,30.67
2022-07-30T15:44:29.339Z,30.43
2022-07-30T15:46:56.350Z,30.79
2022-07-30T15:49:23.787Z,31.14
2022-07-30T15:51:51.943Z,30.31
2022-07-30T15:54:22.132Z,30.33
2022-07-30T15:56:51.421Z,30.68
2022-07-30T15:59:18.721Z,30.58
2022-07-30T16:01:48.019Z,29.67
2022-07-30T16:04:19.349Z,29.42
2022-07-30T16:06:50.055Z,30.24
2022-07-30T16:09:17.199Z,29.44
2022-07-30T16:11:44.181Z,29.37
2022-07-30T16:14:14.056Z,29.43
2022-07-30T16:16:41.054Z,29.64
2022-07-30T16:19:08.134Z,30.23
2022-07-30T16:21:36.346Z,29.92
2022-07-30T16:24:04.678Z,30.97
2022-07-30T16:26:32.122Z,29.99
2022-07-30T16:28:59.463Z,30.87
2022-07-30T16:31:26.470Z,30.49
2022-07-30T16:33:54.207Z,30.19
2022-07-30T16:36:21.512Z,30.16
2022-07-30T16:38:49.193Z,30.38
2022-07-30T16:41:16.845Z,30.81
2022-07-30T16:43:44.230Z,30.64
2022-07-30T16:46:13.880Z,30.87
2022-07-30T16:48:40.817Z,30.03
2022-07-30T16:51:07.845Z,29.94
2022-07-30T16:53:36.068Z,30.05
2022-07-30T16:56:02.945Z,30.38
2022-07-30T16:58:31.281Z,30.47
2022-07-30T17:00:58.291Z,30.65
2022-07-30T17:03:25.685Z,30.42
2022-07-30T17:05:53.270Z,31.50
2022-07-30T17:08:24.945Z,30.32
2022-07-30T17:10:53.038Z,30.94
2022-07-30T17:13:21.010Z,31.30
2022-07-30T17:15:51.088Z,31.33
2022-07-30T17:18:18.166Z,31.59
2022-07-30T17:20:45.786Z,31.79
2022-07-30T17:23:13.056Z,31.91
2022-07-30T17:25:40.787Z,30.84
2022-07-30T17:28:08.263Z,31.42
2022-07-30T17:30:35.260Z,32.31
2022-07-30T17:33:02.498Z,32.09
2022-07-30T17:35:29.454Z,31.55
2022-07-30T17:37:56.541Z,31.37
2022-07-30T17:40:29.297Z,31.60
2022-07-30T17:43:04.172Z,31.91
2022-07-30T17:45:34.490Z,33.41
2022-07-30T17:48:02.319Z,34.04
2022-07-30T17:50:30.750Z,32.92
2022-07-30T17:53:03.733Z,34.05
2022-07-30T17:55:37.636Z,34.22
2022-07-30T17:58:05.375Z,34.65
2022-07-30T18:00:32.934Z,34.21
2022-07-30T18:03:00.146Z,35.41
2022-07-30T18:05:27.942Z,36.12
2022-07-30T18:07:55.380Z,36.04
2022-07-30T18:10:22.418Z,35.75
2022-07-30T18:12:50.855Z,36.70
2022-07-30T18:15:19.147Z,37.59
2022-07-30T18:17:46.574Z,37.31
2022-07-30T18:20:14.145Z,37.13
2022-07-30T18:22:42.621Z,38.75
2022-07-30T18:25:18.640Z,39.52
2022-07-30T18:27:47.625Z,38.90
2022-07-30T18:30:15.953Z,39.39
2022-07-30T18:32:46.291Z,38.33
2022-07-30T18:35:15.237Z,38.59
2022-07-30T18:37:44.116Z,38.48
2022-07-30T18:40:13.486Z,38.96
2022-07-30T18:42:40.946Z,38.69
2022-07-30T18:45:09.420Z,39.13
2022-07-30T18:47:37.194Z,40.23
2022-07-30T18:50:05.402Z,39.41
2022-07-30T18:52:32.440Z,38.76
2022-07-30T18:55:00.193Z,40.14
2022-07-30T18:57:28.216Z,39.99
2022-07-30T18:59:55.856Z,40.36
2022-07-30T19:02:25.942Z,40.28
2022-07-30T19:04:53.597Z,39.22
2022-07-30T19:07:20.688Z,40.41
2022-07-30T19:09:48.342Z,39.70
2022-07-30T19:12:15.255Z,39.19
2022-07-30T19:14:42.238Z,39.14
2022-07-30T19:17:14.063Z,39.75
2022-07-30T19:19:42.426Z,39.14
2022-07-30T19:22:09.374Z,40.63
2022-07-30T19:24:36.114Z,39.18
2022-07-30T19:27:05.423Z,40.25
2022-07-30T19:29:33.231Z,41.27
2022-07-30T19:32:00.455Z,40.14
2022-07-30T19:34:27.549Z,40.92
2022-07-30T19:36:54.368Z,40.92
2022-07-30T19:39:22.103Z,41.13
2022-07-30T19:41:51.003Z,41.92
2022-07-30T19:44:18.764Z,42.28
2022-07-30T19:46:46.154Z,41.29
2022-07-30T19:49:12.923Z,40.53
2022-07-30T19:52:09.867Z,41.31
2022-07-30T19:54:27.031Z,42.19
2022-07-30T19:56:53.771Z,42.25
2022-07-30T19:59:25.281Z,42.64
2022-07-30T20:02:08.513Z,42.37
2022-07-30T20:04:36.836Z,42.92
2022-07-30T20:07:04.364Z,43.48
2022-07-30T20:09:31.405Z,43.54
2022-07-30T20:11:59.863Z,43.44
2022-07-30T20:14:29.519Z,43.43
2022-07-30T20:16:56.452Z,43.93
2022-07-30T20:19:35.910Z,44.35
2022-07-30T20:22:03.205Z,44.39
2022-07-30T20:24:30.090Z,45.15
2022-07-30T20:26:58.068Z,44.50
2022-07-30T20:29:25.111Z,45.33
2022-07-30T20:31:51.925Z,45.60
2022-07-30T20:34:25.833Z,45.49
2022-07-30T20:36:53.954Z,45.37
2022-07-30T20:39:24.246Z,45.50
2022-07-30T20:42:07.767Z,45.54
2022-07-30T20:44:43.377Z,46.43
2022-07-30T20:47:28.268Z,45.77
2022-07-30T20:50:09.527Z,46.51
2022-07-30T20:52:40.435Z,46.68
2022-07-30T20:55:09.362Z,47.15
2022-07-30T20:57:57.157Z,47.04
2022-07-30T21:00:23.542Z,47.32
2022-07-30T21:02:51.709Z,47.64
2022-07-30T21:05:19.852Z,47.91
2022-07-30T21:07:47.231Z,48.39
2022-07-30T21:10:14.650Z,49.02
2022-07-30T21:12:44.800Z,49.11
2022-07-30T21:15:23.644Z,49.20
2022-07-30T21:17:51.522Z,49.69
2022-07-30T21:20:28.083Z,50.04
2022-07-30T21:22:56.172Z,49.98
2022-07-30T21:25:32.356Z,50.51
2022-07-30T21:28:02.798Z,50.53
2022-07-30T21:30:30.986Z,50.34
2022-07-30T21:32:58.356Z,50.46
2022-07-30T21:35:25.465Z,50.47
2022-07-30T21:37:59.391Z,50.76
2022-07-30T21:40:27.814Z,51.61
2022-07-30T21:42:55.954Z,51.71
2022-07-30T21:45:26.975Z,51.51
2022-07-30T21:48:10.815Z,51.94
2022-07-30T21:50:38.268Z,52.28
2022-07-30T21:53:05.204Z,52.40
2022-07-30T21:55:33.462Z,52.17
2022-07-30T21:58:25.935Z,52.21
2022-07-30T22:00:55.125Z,52.90
2022-07-30T22:04:02.806Z,52.54
2022-07-30T22:06:12.600Z,53.27
2022-07-30T22:08:39.931Z,53.07
2022-07-30T22:11:09.048Z,53.21
2022-07-30T22:13:53.736Z,53.86
2022-07-30T22:16:21.962Z,53.79
2022-07-30T22:18:50.062Z,54.28
2022-07-30T22:21:16.931Z,53.65
2022-07-30T22:23:54.993Z,53.89
2022-07-30T22:26:26.901Z,53.87
2022-07-30T22:28:54.279Z,53.93
2022-07-30T22:31:21.415Z,54.33
2022-07-30T22:33:49.900Z,54.56
2022-07-30T22:36:24.472Z,54.81
2022-07-30T22:38:59.097Z,55.08
2022-07-30T22:41:29.065Z,54.44
2022-07-30T22:43:55.969Z,55.55
2022-07-30T22:46:30.953Z,55.17
2022-07-30T22:48:59.222Z,55.45
2022-07-30T22:52:19.591Z,55.35
2022-07-30T22:54:13.582Z,55.69
2022-07-30T22:56:41.741Z,55.95
2022-07-30T22:59:12.915Z,56.15
2022-07-30T23:01:43.346Z,56.17
2022-07-30T23:04:13.450Z,55.97
2022-07-30T23:06:41.962Z,56.40
2022-07-30T23:09:08.710Z,57.12
2022-07-30T23:11:38.931Z,57.04
2022-07-30T23:14:06.624Z,56.75
2022-07-30T23:16:33.460Z,57.50
2022-07-30T23:19:00.218Z,57.26
2022-07-30T23:21:27.155Z,57.46
2022-07-30T23:23:53.940Z,57.43
2022-07-30T23:26:20.686Z,57.81
2022-07-30T23:28:47.515Z,58.14
2022-07-30T23:31:14.349Z,58.03
2022-07-30T23:33:41.257Z,58.29
2022-07-30T23:36:09.507Z,58.42
2022-07-30T23:38:37.113Z,58.15
2022-07-30T23:41:04.455Z,58.54
2022-07-30T23:43:31.660Z,58.57
2022-07-30T23:45:58.472Z,58.97
2022-07-30T23:48:25.410Z,58.80
2022-07-30T23:50:52.231Z,59.01
2022-07-30T23:53:19.091Z,59.10
2022-07-30T23:55:48.134Z,59.30
2022-07-30T23:58:14.932Z,59.49
